Time;durP1;ratioP1;P1;durP2;ratioP2;P2;SDS_P1;SDS_P2;PMS_P1;PMS_P2;Temp;Humidity;BMP_temperature;BMP_pressure;BME280_temperature;BME280_humidity;BME280_pressure;Samples;Min_cycle;Max_cycle;Signal;HPM_P1;HPM_P2
2024/01/28 00:02:13;;;;;;;15.93;7.85;;;;;;;-0.26;100.00;103224.75;5071598;28;20032;-73
2024/01/28 00:04:38;;;;;;;16.02;8.30;;;;;;;-0.26;100.00;103208.19;5071439;28;20040;-73
2024/01/28 00:07:03;;;;;;;22.58;7.97;;;;;;;-0.25;100.00;103208.09;5053211;28;20078;-73
2024/01/28 00:09:29;;;;;;;17.90;9.93;;;;;;;-0.30;100.00;103198.72;5071204;28;20162;-73
2024/01/28 00:11:54;;;;;;;18.75;8.15;;;;;;;-0.24;100.00;103211.56;5071208;28;20066;-73
2024/01/28 00:14:20;;;;;;;15.63;8.20;;;;;;;-0.22;100.00;103217.59;5069843;28;20028;-73
2024/01/28 00:16:45;;;;;;;15.23;8.40;;;;;;;-0.15;100.00;103210.31;5069707;28;20379;-73
2024/01/28 00:19:11;;;;;;;19.67;9.52;;;;;;;-0.16;100.00;103204.19;5071107;28;20082;-73
2024/01/28 00:21:36;;;;;;;17.23;8.00;;;;;;;-0.09;100.00;103207.41;5071147;28;20032;-74
2024/01/28 00:24:04;;;;;;;18.20;7.63;;;;;;;-0.04;100.00;103211.53;5071081;28;20035;-73
2024/01/28 00:26:29;;;;;;;20.13;8.10;;;;;;;-0.02;100.00;103193.97;5069618;28;20036;-73
2024/01/28 00:28:55;;;;;;;22.25;9.32;;;;;;;0.03;100.00;103185.00;5071188;28;20544;-78
2024/01/28 00:31:20;;;;;;;19.17;9.25;;;;;;;0.14;100.00;103194.09;5070014;28;20028;-79
2024/01/28 00:33:46;;;;;;;25.55;10.05;;;;;;;0.16;100.00;103197.53;5071292;28;20082;-79
2024/01/28 00:36:15;;;;;;;19.73;9.20;;;;;;;0.22;100.00;103194.59;5071380;28;20052;-80
2024/01/28 00:38:41;;;;;;;17.05;7.35;;;;;;;0.24;100.00;103191.91;5071321;28;20060;-79
2024/01/28 00:41:07;;;;;;;22.45;8.52;;;;;;;0.26;100.00;103189.19;5071024;28;20028;-79
2024/01/28 00:43:32;;;;;;;23.50;9.55;;;;;;;0.25;100.00;103177.03;5071068;28;20030;-79
2024/01/28 00:45:57;;;;;;;23.83;8.32;;;;;;;0.25;100.00;103171.78;5070800;28;20067;-79
2024/01/28 00:48:23;;;;;;;20.25;8.45;;;;;;;0.24;100.00;103173.56;5070864;28;20032;-79
2024/01/28 00:50:48;;;;;;;18.80;8.07;;;;;;;0.15;100.00;103161.69;5070661;28;20059;-79
2024/01/28 00:53:14;;;;;;;22.15;9.30;;;;;;;0.17;100.00;103172.97;5069394;28;20021;-79
2024/01/28 00:55:39;;;;;;;14.10;6.70;;;;;;;0.16;100.00;103171.28;5070543;28;20365;-78
2024/01/28 00:58:04;;;;;;;20.45;9.30;;;;;;;0.16;100.00;103165.19;5070661;28;20081;-79
2024/01/28 01:00:31;;;;;;;17.65;7.80;;;;;;;0.14;100.00;103170.50;5070737;28;20525;-79
2024/01/28 01:02:56;;;;;;;22.65;9.13;;;;;;;0.13;100.00;103160.06;5070629;28;20087;-79
2024/01/28 01:05:21;;;;;;;18.77;8.15;;;;;;;0.14;100.00;103159.16;5069129;28;20052;-79
2024/01/28 01:07:47;;;;;;;17.42;7.43;;;;;;;0.14;100.00;103160.00;5069024;28;20040;-79
2024/01/28 01:10:13;;;;;;;17.95;8.05;;;;;;;0.14;100.00;103153.91;5070328;28;20574;-78
2024/01/28 01:12:39;;;;;;;15.85;6.63;;;;;;;0.16;100.00;103149.44;5070364;28;20058;-79
2024/01/28 01:15:04;;;;;;;20.55;9.45;;;;;;;0.18;100.00;103160.69;5070151;28;20500;-78
2024/01/28 01:17:30;;;;;;;21.05;10.13;;;;;;;0.16;100.00;103150.28;5070372;28;20039;-79
2024/01/28 01:19:55;;;;;;;20.33;8.10;;;;;;;0.13;100.00;103149.56;5068998;28;20028;-79
2024/01/28 01:22:20;;;;;;;18.67;7.65;;;;;;;0.15;100.00;103158.22;5069038;28;20025;-79
2024/01/28 01:24:46;;;;;;;16.83;9.05;;;;;;;0.14;100.00;103157.38;5070138;28;20111;-79
2024/01/28 01:27:11;;;;;;;18.58;9.25;;;;;;;0.13;100.00;103149.56;5070180;28;20518;-79
2024/01/28 01:29:37;;;;;;;17.77;7.22;;;;;;;0.08;100.00;103143.69;5070132;28;20032;-79
2024/01/28 01:32:02;;;;;;;17.20;7.43;;;;;;;0.10;100.00;103147.09;5070231;28;20103;-78
2024/01/28 01:34:27;;;;;;;19.48;8.23;;;;;;;0.05;100.00;103151.69;5070064;28;20036;-79
2024/01/28 01:36:53;;;;;;;19.67;8.40;;;;;;;0.06;100.00;103142.91;5068811;28;20387;-79
2024/01/28 01:39:18;;;;;;;18.17;9.02;;;;;;;0.06;100.00;103141.16;5068550;28;20051;-79
2024/01/28 01:41:43;;;;;;;17.05;7.63;;;;;;;0.05;100.00;103135.97;5069912;28;20043;-79
2024/01/28 01:44:10;;;;;;;18.67;7.60;;;;;;;-0.01;100.00;103129.22;5070044;28;20027;-79
2024/01/28 01:46:35;;;;;;;14.25;6.70;;;;;;;-0.03;100.00;103149.44;5069735;28;20084;-79
2024/01/28 01:49:02;;;;;;;17.70;8.82;;;;;;;-0.17;100.00;103138.72;5069742;28;20029;-79
2024/01/28 01:51:28;;;;;;;20.60;7.97;;;;;;;-0.26;100.00;103153.13;5069852;28;20025;-79
2024/01/28 01:53:54;;;;;;;17.08;7.20;;;;;;;-0.35;100.00;103148.28;5069795;28;20059;-78
2024/01/28 01:56:20;;;;;;;16.17;8.10;;;;;;;-0.41;100.00;103164.28;5069830;28;20040;-79
2024/01/28 01:58:46;;;;;;;19.48;8.50;;;;;;;-0.50;100.00;103162.91;5069863;28;20043;-79
2024/01/28 02:01:16;;;;;;;17.10;8.70;;;;;;;-0.59;100.00;103158.91;5069674;28;20358;-79
2024/01/28 02:03:42;;;;;;;18.00;7.68;;;;;;;-0.70;100.00;103151.53;5069768;28;20530;-79
2024/01/28 02:06:07;;;;;;;23.73;9.32;;;;;;;-0.73;100.00;103154.28;5068394;28;20033;-79
2024/01/28 02:08:32;;;;;;;17.70;7.20;;;;;;;-0.70;100.00;103166.41;5069534;28;20032;-78
2024/01/28 02:11:02;;;;;;;19.75;7.55;;;;;;;-0.74;100.00;103170.91;5069729;28;20036;-79
2024/01/28 02:13:27;;;;;;;16.15;7.97;;;;;;;-0.83;100.00;103167.84;5069607;28;20079;-78
2024/01/28 02:15:52;;;;;;;20.75;7.82;;;;;;;-0.95;100.00;103148.25;5069083;28;20060;-78
2024/01/28 02:18:18;;;;;;;15.30;7.35;;;;;;;-1.00;100.00;103150.22;5051671;28;21035;-78
2024/01/28 02:20:43;;;;;;;22.33;9.20;;;;;;;-1.00;100.00;103156.28;5069859;28;20035;-79
2024/01/28 02:23:09;;;;;;;17.42;8.52;;;;;;;-1.07;100.00;103152.25;5072422;28;20111;-78
2024/01/28 02:25:34;;;;;;;13.15;8.88;;;;;;;-1.07;100.00;103160.09;5055469;28;20115;-78
2024/01/28 02:28:00;;;;;;;18.77;8.30;;;;;;;-1.11;100.00;103148.03;5072322;28;20407;-79
2024/01/28 02:30:25;;;;;;;16.90;7.60;;;;;;;-1.21;100.00;103137.09;5073586;28;20077;-79
2024/01/28 02:32:51;;;;;;;17.98;7.97;;;;;;;-1.19;100.00;103130.03;5073361;28;20439;-79
2024/01/28 02:35:18;;;;;;;19.20;8.93;;;;;;;-1.19;100.00;103121.31;5072067;28;20043;-79
2024/01/28 02:37:43;;;;;;;21.13;8.27;;;;;;;-1.17;100.00;103116.88;5073370;28;20129;-79
2024/01/28 02:40:09;;;;;;;20.02;8.48;;;;;;;-1.14;100.00;103116.75;5073134;28;20132;-79
2024/01/28 02:42:35;;;;;;;19.90;9.05;;;;;;;-1.16;100.00;103113.34;5073542;28;20020;-79
2024/01/28 02:45:01;;;;;;;14.45;7.10;;;;;;;-1.22;100.00;103096.13;5073415;28;20052;-79
2024/01/28 02:47:26;;;;;;;26.00;8.23;;;;;;;-1.27;100.00;103092.00;5073270;28;20028;-79
2024/01/28 02:49:51;;;;;;;18.58;7.68;;;;;;;-1.24;100.00;103097.09;5055289;28;20040;-79
2024/01/28 02:52:17;;;;;;;14.30;7.55;;;;;;;-1.28;100.00;103100.75;5072108;28;20032;-79
2024/01/28 02:54:42;;;;;;;17.48;8.82;;;;;;;-1.35;100.00;103087.09;5071771;28;20060;-79
2024/01/28 02:57:07;;;;;;;18.83;8.35;;;;;;;-1.39;100.00;103096.84;5071853;28;20040;-79
2024/01/28 02:59:33;;;;;;;20.08;9.88;;;;;;;-1.40;100.00;103095.13;5073094;28;20069;-79
2024/01/28 03:01:58;;;;;;;16.13;7.65;;;;;;;-1.44;100.00;103105.78;5072900;28;20064;-79
2024/01/28 03:04:24;;;;;;;18.10;7.18;;;;;;;-1.52;100.00;103089.53;5072824;28;20058;-79
2024/01/28 03:06:49;;;;;;;16.02;8.80;;;;;;;-1.48;100.00;103091.13;5071426;28;20039;-79
2024/01/28 03:09:15;;;;;;;17.25;8.20;;;;;;;-1.55;100.00;103087.88;5055217;28;20028;-79
2024/01/28 03:11:40;;;;;;;20.13;8.98;;;;;;;-1.51;100.00;103081.63;5072798;28;20028;-78
2024/01/28 03:14:06;;;;;;;17.58;6.60;;;;;;;-1.51;100.00;103084.25;5071508;28;20028;-79
2024/01/28 03:16:32;;;;;;;18.40;6.85;;;;;;;-1.55;100.00;103069.56;5072719;28;20032;-79
2024/01/28 03:18:58;;;;;;;15.30;6.75;;;;;;;-1.52;100.00;103066.81;5072724;28;20024;-79
2024/01/28 03:21:23;;;;;;;16.02;7.38;;;;;;;-1.50;100.00;103074.63;5071573;28;20494;-79
2024/01/28 03:23:48;;;;;;;16.67;7.05;;;;;;;-1.49;100.00;103069.34;5072803;28;20032;-79
2024/01/28 03:26:14;;;;;;;19.92;8.25;;;;;;;-1.55;100.00;103056.50;5072794;28;20036;-79
2024/01/28 03:28:39;;;;;;;14.18;6.85;;;;;;;-1.55;100.00;103065.22;5072721;28;20036;-79
2024/01/28 03:31:05;;;;;;;13.30;6.63;;;;;;;-1.52;100.00;103069.44;5072644;28;20035;-79
2024/01/28 03:33:30;;;;;;;20.27;6.65;;;;;;;-1.56;100.00;103067.88;5072734;28;20032;-79
2024/01/28 03:35:56;;;;;;;17.58;6.43;;;;;;;-1.57;100.00;103077.50;5072484;28;20032;-79
2024/01/28 03:38:21;;;;;;;14.68;6.90;;;;;;;-1.59;100.00;103068.84;5072611;28;20495;-79
2024/01/28 03:40:47;;;;;;;14.35;6.28;;;;;;;-1.68;100.00;103057.91;5072548;28;20028;-79
2024/01/28 03:43:13;;;;;;;17.95;6.57;;;;;;;-1.64;100.00;103078.66;5072451;28;20545;-79
2024/01/28 03:45:39;;;;;;;23.52;8.98;;;;;;;-1.69;100.00;103088.47;5071925;28;20099;-79
2024/01/28 03:48:04;;;;;;;17.73;8.27;;;;;;;-1.74;100.00;103081.72;5072383;28;20500;-79
2024/01/28 03:50:30;;;;;;;15.90;6.93;;;;;;;-1.73;100.00;103083.41;5072205;28;20479;-79
2024/01/28 03:52:55;;;;;;;15.93;6.75;;;;;;;-1.77;100.00;103080.91;5072175;28;20487;-79
2024/01/28 03:55:21;;;;;;;20.30;7.57;;;;;;;-1.82;100.00;103064.56;5071989;28;20467;-79
2024/01/28 03:57:46;;;;;;;14.43;7.93;;;;;;;-1.82;100.00;103072.41;5072538;28;20411;-79
2024/01/28 04:00:12;;;;;;;13.55;5.57;;;;;;;-1.87;100.00;103063.88;5072249;28;20036;-79
2024/01/28 04:02:41;;;;;;;17.25;6.90;;;;;;;-1.87;100.00;103061.28;5072171;28;20089;-78
2024/01/28 04:05:07;;;;;;;16.50;6.20;;;;;;;-1.86;100.00;103065.59;5070641;28;20047;-79
2024/01/28 04:07:32;;;;;;;15.68;6.28;;;;;;;-1.90;100.00;103047.47;5071469;28;20028;-79
2024/01/28 04:09:57;;;;;;;14.50;6.82;;;;;;;-1.92;100.00;103047.53;5071727;28;20052;-79
2024/01/28 04:12:23;;;;;;;13.20;6.18;;;;;;;-1.95;100.00;103052.03;5071908;28;20028;-79
2024/01/28 04:14:48;;;;;;;13.43;6.30;;;;;;;-2.02;100.00;103046.19;5070536;28;20098;-79
2024/01/28 04:17:14;;;;;;;14.00;5.97;;;;;;;-2.02;100.00;103054.91;5071701;28;20028;-79
2024/01/28 04:19:39;;;;;;;12.60;6.00;;;;;;;-2.06;100.00;103053.31;5071739;28;20060;-79
2024/01/28 04:22:08;;;;;;;11.77;6.15;;;;;;;-2.14;100.00;103044.91;5070489;28;20028;-79
2024/01/28 04:24:33;;;;;;;10.80;6.00;;;;;;;-2.12;100.00;103050.06;5071749;28;20035;-79
2024/01/28 04:26:59;;;;;;;12.30;5.47;;;;;;;-2.13;100.00;103051.84;5072004;28;20020;-79
2024/01/28 04:29:24;;;;;;;14.57;6.05;;;;;;;-2.20;100.00;103039.94;5070376;28;20052;-79
2024/01/28 04:31:50;;;;;;;14.95;5.72;;;;;;;-2.19;100.00;103046.84;5070425;28;20032;-79
2024/01/28 04:34:15;;;;;;;13.23;4.93;;;;;;;-2.22;100.00;103039.97;5070199;28;20975;-79
2024/01/28 04:36:41;;;;;;;12.32;5.50;;;;;;;-2.31;100.00;103037.72;5070154;28;20110;-79
2024/01/28 04:39:07;;;;;;;18.58;6.80;;;;;;;-2.26;100.00;103045.38;5071419;28;20040;-79
2024/01/28 04:41:32;;;;;;;14.25;6.78;;;;;;;-2.24;100.00;103035.72;5071589;28;20414;-79
2024/01/28 04:43:58;;;;;;;17.00;7.40;;;;;;;-2.25;100.00;103028.81;5063495;28;20054;-79
2024/01/28 04:46:23;;;;;;;12.65;5.82;;;;;;;-2.23;100.00;103025.22;5069888;28;20092;-79
2024/01/28 04:48:49;;;;;;;18.02;6.63;;;;;;;-2.22;100.00;103034.75;5071241;28;20055;-79
2024/01/28 04:51:14;;;;;;;20.27;7.15;;;;;;;-2.24;100.00;103023.50;5071167;28;20481;-79
2024/01/28 04:53:39;;;;;;;19.33;6.00;;;;;;;-2.24;100.00;103022.66;5071205;28;20103;-79
2024/01/28 04:56:05;;;;;;;9.32;5.88;;;;;;;-2.24;100.00;103015.66;5069617;28;20028;-79
2024/01/28 04:58:30;;;;;;;14.48;6.85;;;;;;;-2.25;100.00;103008.75;5070896;28;20480;-79
2024/01/28 05:00:56;;;;;;;21.42;7.88;;;;;;;-2.24;100.00;103014.81;5070943;28;20111;-79
2024/01/28 05:03:21;;;;;;;16.35;6.43;;;;;;;-2.25;100.00;103013.13;5070736;28;20060;-79
2024/01/28 05:05:46;;;;;;;13.23;7.35;;;;;;;-2.25;100.00;103013.13;5070939;28;20035;-79
2024/01/28 05:08:12;;;;;;;16.30;6.88;;;;;;;-2.25;100.00;103016.59;5070832;28;20448;-79
2024/01/28 05:10:38;;;;;;;13.25;6.70;;;;;;;-2.23;100.00;103011.28;5070828;28;20047;-79
2024/01/28 05:13:04;;;;;;;18.38;7.32;;;;;;;-2.25;100.00;103010.50;5070866;28;20029;-80
2024/01/28 05:15:29;;;;;;;16.95;7.55;;;;;;;-2.19;100.00;103014.66;5068936;28;20553;-79
2024/01/28 05:17:55;;;;;;;15.52;7.45;;;;;;;-2.17;100.00;103012.78;5070506;28;20544;-79
2024/01/28 05:20:20;;;;;;;13.45;6.43;;;;;;;-2.14;100.00;103012.69;5070777;28;20111;-79
2024/01/28 05:22:45;;;;;;;18.77;7.05;;;;;;;-2.18;100.00;102998.03;5070585;28;20043;-79
2024/01/28 05:25:11;;;;;;;17.27;7.03;;;;;;;-2.09;100.00;103005.53;5070420;28;20021;-79
2024/01/28 05:27:37;;;;;;;17.17;8.05;;;;;;;-2.07;100.00;103001.94;5070950;28;20040;-79
2024/01/28 05:30:03;;;;;;;17.45;6.38;;;;;;;-2.09;100.00;103000.31;5070414;28;20044;-79
2024/01/28 05:32:29;;;;;;;15.63;7.40;;;;;;;-2.13;100.00;102996.09;5052606;28;20036;-79
2024/01/28 05:35:02;;;;;;;17.92;7.60;;;;;;;-2.14;100.00;102991.78;5070295;28;20032;-79
2024/01/28 05:37:28;;;;;;;14.38;6.55;;;;;;;-2.12;100.00;103000.41;5069162;28;20058;-79
2024/01/28 05:39:53;;;;;;;17.33;7.60;;;;;;;-2.17;100.00;102991.88;5070302;28;20481;-79
2024/01/28 05:42:18;;;;;;;15.40;6.93;;;;;;;-2.15;100.00;102992.69;5070572;28;20111;-79
2024/01/28 05:44:44;;;;;;;12.00;6.38;;;;;;;-2.24;100.00;102973.84;5070456;28;20071;-79
2024/01/28 05:47:09;;;;;;;13.00;6.20;;;;;;;-2.13;100.00;102973.41;5070313;28;20098;-79
2024/01/28 05:49:34;;;;;;;14.07;7.00;;;;;;;-2.11;100.00;102971.59;5070142;28;20044;-79
2024/01/28 05:52:00;;;;;;;14.25;6.25;;;;;;;-2.14;100.00;102963.88;5070359;28;20087;-79
2024/01/28 05:54:25;;;;;;;15.32;7.05;;;;;;;-2.11;100.00;102971.59;5070430;28;20032;-79
2024/01/28 05:56:50;;;;;;;17.50;8.45;;;;;;;-2.10;100.00;102964.59;5069259;28;20561;-79
2024/01/28 05:59:16;;;;;;;17.70;7.95;;;;;;;-2.10;100.00;102957.59;5070310;28;20388;-79
2024/01/28 06:01:42;;;;;;;22.92;9.00;;;;;;;-2.11;100.00;102952.44;5070131;28;20395;-79
2024/01/28 06:04:09;;;;;;;16.02;6.85;;;;;;;-2.06;100.00;102950.50;5070163;28;20024;-79
2024/01/28 06:06:34;;;;;;;18.88;8.55;;;;;;;-2.12;100.00;102942.88;5070065;28;20549;-79
2024/01/28 06:09:00;;;;;;;21.10;8.18;;;;;;;-2.17;100.00;102940.47;5068848;28;20032;-79
2024/01/28 06:11:25;;;;;;;18.35;7.65;;;;;;;-2.09;100.00;102948.84;5069996;28;20036;-79
2024/01/28 06:13:51;;;;;;;36.80;9.73;;;;;;;-2.13;100.00;102930.75;5068766;28;20075;-80
2024/01/28 06:16:16;;;;;;;14.48;7.20;;;;;;;-2.12;100.00;102937.66;5068843;28;20051;-79
2024/01/28 06:18:43;;;;;;;14.38;6.97;;;;;;;-2.08;100.00;102939.25;5069909;28;20089;-79
2024/01/28 06:21:10;;;;;;;17.67;7.65;;;;;;;-2.08;100.00;102939.25;5069997;28;20506;-79
2024/01/28 06:23:36;;;;;;;21.30;8.57;;;;;;;-2.09;100.00;102932.34;5070045;28;20024;-79
2024/01/28 06:26:01;;;;;;;24.80;8.77;;;;;;;-2.17;100.00;102919.56;5068812;28;20029;-79
2024/01/28 06:28:27;;;;;;;21.38;7.82;;;;;;;-2.21;100.00;102905.75;5069918;28;20078;-79
2024/01/28 06:30:52;;;;;;;21.60;8.77;;;;;;;-2.14;100.00;102918.59;5070072;28;20061;-79
2024/01/28 06:33:17;;;;;;;18.17;8.02;;;;;;;-2.13;100.00;102913.28;5069907;28;20024;-79
2024/01/28 06:35:43;;;;;;;20.77;9.20;;;;;;;-2.16;100.00;102908.19;5069794;28;20036;-79
2024/01/28 06:38:08;;;;;;;19.40;7.65;;;;;;;-2.17;100.00;102903.00;5068745;28;20024;-79
2024/01/28 06:40:33;;;;;;;15.50;7.47;;;;;;;-2.16;100.00;102917.81;5069804;28;20024;-79
2024/01/28 06:42:59;;;;;;;22.63;6.90;;;;;;;-2.19;100.00;102910.09;5069933;28;20055;-79
2024/01/28 06:45:24;;;;;;;17.10;7.60;;;;;;;-2.19;100.00;102912.72;5067899;28;20485;-79
2024/01/28 06:47:50;;;;;;;13.95;6.07;;;;;;;-2.20;100.00;102919.72;5069783;28;20510;-79
2024/01/28 06:50:16;;;;;;;15.52;8.43;;;;;;;-2.21;100.00;102912.75;5068869;28;20036;-79
2024/01/28 06:52:44;;;;;;;16.58;6.50;;;;;;;-2.29;100.00;102910.44;5069937;28;20054;-79
2024/01/28 06:55:10;;;;;;;16.27;7.78;;;;;;;-2.30;100.00;102906.16;5069736;28;20028;-79
2024/01/28 06:57:35;;;;;;;12.95;6.43;;;;;;;-2.29;100.00;102918.28;5070122;28;20051;-79
2024/01/28 07:00:01;;;;;;;18.13;7.60;;;;;;;-2.35;100.00;102913.31;5069800;28;20495;-79
2024/01/28 07:02:26;;;;;;;14.07;5.93;;;;;;;-2.33;100.00;102923.69;5070013;28;20064;-79
2024/01/28 07:04:51;;;;;;;17.80;9.27;;;;;;;-2.35;100.00;102920.31;5069892;28;20074;-79
2024/01/28 07:07:18;;;;;;;15.35;6.22;;;;;;;-2.45;100.00;102899.78;5070646;28;20024;-79
2024/01/28 07:09:43;;;;;;;15.18;6.88;;;;;;;-2.38;100.00;102918.69;5072918;28;20028;-79
2024/01/28 07:12:08;;;;;;;15.60;6.78;;;;;;;-2.46;100.00;102912.91;5072972;28;20105;-79
2024/01/28 07:14:34;;;;;;;14.50;6.68;;;;;;;-2.50;100.00;102912.16;5071395;28;20025;-79
2024/01/28 07:16:59;;;;;;;21.88;7.13;;;;;;;-2.45;100.00;102910.22;5072217;28;20056;-79
2024/01/28 07:19:25;;;;;;;14.40;7.47;;;;;;;-2.47;100.00;102909.44;5072277;28;20120;-79
2024/01/28 07:21:51;;;;;;;14.75;6.82;;;;;;;-2.44;100.00;102911.94;5072429;28;20032;-80
2024/01/28 07:24:17;;;;;;;18.98;8.63;;;;;;;-2.44;100.00;102914.56;5071199;28;20113;-79
2024/01/28 07:26:43;;;;;;;14.25;7.80;;;;;;;-2.51;100.00;102901.78;5071362;28;20415;-79
2024/01/28 07:29:09;;;;;;;13.35;7.00;;;;;;;-2.51;100.00;102904.41;5071646;28;20043;-79
2024/01/28 07:31:34;;;;;;;16.73;6.80;;;;;;;-2.53;100.00;102895.78;5071608;28;20051;-79
2024/01/28 07:34:01;;;;;;;15.13;7.75;;;;;;;-2.53;100.00;102903.59;5072573;28;20479;-79
2024/01/28 07:36:29;;;;;;;13.10;7.38;;;;;;;-2.58;100.00;102889.88;5071613;28;20045;-79
2024/01/28 07:38:54;;;;;;;12.43;7.65;;;;;;;-2.45;100.00;102898.94;5072352;28;20400;-79
2024/01/28 07:41:19;;;;;;;15.57;7.10;;;;;;;-2.45;100.00;102910.22;5072768;28;20031;-79
2024/01/28 07:43:45;;;;;;;19.60;9.13;;;;;;;-2.45;100.00;102898.94;5072588;28;20033;-79
2024/01/28 07:46:10;;;;;;;18.05;7.85;;;;;;;-2.40;100.00;102906.59;5070981;28;20577;-79
2024/01/28 07:48:36;;;;;;;14.50;7.28;;;;;;;-2.40;100.00;102907.44;5071278;28;20044;-79
2024/01/28 07:51:02;;;;;;;14.05;6.90;;;;;;;-2.41;100.00;102900.53;5072873;28;20028;-80
2024/01/28 07:53:28;;;;;;;16.25;6.88;;;;;;;-2.38;100.00;102897.78;5072492;28;20111;-79
2024/01/28 07:55:54;;;;;;;19.55;8.95;;;;;;;-2.28;100.00;102901.72;5072362;28;20047;-79
2024/01/28 07:58:19;;;;;;;19.83;9.73;;;;;;;-2.18;100.00;102886.50;5071420;28;20028;-79
2024/01/28 08:00:45;;;;;;;20.52;9.52;;;;;;;-2.08;100.00;102895.66;5072275;28;20036;-79
2024/01/28 08:03:10;;;;;;;15.73;7.35;;;;;;;-1.99;100.00;102894.44;5072461;28;20055;-79
2024/01/28 08:05:35;;;;;;;18.40;9.80;;;;;;;-1.85;100.00;102893.84;5072391;28;20029;-80
2024/01/28 08:08:01;;;;;;;17.45;8.80;;;;;;;-1.75;100.00;102905.63;5072172;28;20048;-79
2024/01/28 08:10:26;;;;;;;15.65;8.05;;;;;;;-1.72;100.00;102902.03;5072262;28;20062;-80
2024/01/28 08:12:52;;;;;;;14.48;7.60;;;;;;;-1.72;100.00;102904.63;5072359;28;20180;-79
2024/01/28 08:15:17;;;;;;;18.08;8.32;;;;;;;-1.66;100.00;102894.75;5072124;28;20090;-80
2024/01/28 08:17:44;;;;;;;19.45;7.93;;;;;;;-1.55;100.00;102896.88;5072107;28;20587;-79
2024/01/28 08:20:09;;;;;;;18.15;8.48;;;;;;;-1.47;100.00;102894.78;5071171;28;20028;-79
2024/01/28 08:22:35;;;;;;;19.55;8.27;;;;;;;-1.44;100.00;102884.19;5070907;28;20143;-79
2024/01/28 08:25:00;;;;;;;18.77;8.57;;;;;;;-1.33;100.00;102897.66;5071001;28;20032;-79
2024/01/28 08:27:25;;;;;;;15.77;7.97;;;;;;;-1.25;100.00;102893.84;5072233;28;20526;-79
2024/01/28 08:29:51;;;;;;;22.98;9.32;;;;;;;-1.20;100.00;102886.63;5071986;28;20468;-80
2024/01/28 08:32:16;;;;;;;20.05;8.48;;;;;;;-1.15;100.00;102887.28;5070244;28;20051;-79
2024/01/28 08:34:41;;;;;;;15.63;6.82;;;;;;;-1.07;100.00;102887.78;5071578;28;20031;-79
2024/01/28 08:37:07;;;;;;;23.00;10.55;;;;;;;-1.00;100.00;102881.31;5071386;28;20025;-79
2024/01/28 08:39:32;;;;;;;15.77;8.77;;;;;;;-0.93;100.00;102880.09;5071537;28;20025;-79
2024/01/28 08:41:59;;;;;;;19.73;7.72;;;;;;;-0.86;100.00;102875.44;5071436;28;20039;-81
2024/01/28 08:44:24;;;;;;;16.45;7.65;;;;;;;-0.75;100.00;102867.06;5071752;28;20028;-80
2024/01/28 08:46:51;;;;;;;13.32;7.18;;;;;;;-0.68;100.00;102866.72;5070294;28;20059;-79
2024/01/28 08:49:16;;;;;;;15.77;7.85;;;;;;;-0.57;100.00;102863.56;5071445;28;20047;-79
2024/01/28 08:51:42;;;;;;;15.15;7.57;;;;;;;-0.46;100.00;102863.88;5070007;28;20400;-79
2024/01/28 08:54:07;;;;;;;17.73;6.68;;;;;;;-0.33;100.00;102864.13;5071345;28;20636;-78
2024/01/28 08:56:32;;;;;;;20.00;8.00;;;;;;;-0.21;100.00;102875.78;5070467;28;20060;-81
2024/01/28 08:58:58;;;;;;;16.75;7.93;;;;;;;-0.12;100.00;102874.50;5069659;28;20032;-77
2024/01/28 09:01:23;;;;;;;15.93;7.55;;;;;;;-0.03;100.00;102871.38;5068103;28;20097;-81
2024/01/28 09:03:48;;;;;;;18.05;8.43;;;;;;;0.03;100.00;102873.72;5068444;28;20085;-81
2024/01/28 09:06:14;;;;;;;22.40;9.40;;;;;;;0.17;100.00;102873.84;5069822;28;20027;-81
2024/01/28 09:08:39;;;;;;;20.83;8.35;;;;;;;0.27;100.00;102871.59;5069522;28;20127;-81
2024/01/28 09:11:04;;;;;;;18.17;8.50;;;;;;;0.31;100.00;102857.38;5068678;28;20033;-81
2024/01/28 09:13:30;;;;;;;21.23;8.20;;;;;;;0.41;100.00;102857.75;5066511;28;20036;-81
2024/01/28 09:15:55;;;;;;;18.67;7.50;;;;;;;0.48;100.00;102851.25;5065951;28;20071;-81
2024/01/28 09:18:21;;;;;;;20.38;8.20;;;;;;;0.60;100.00;102852.38;5067924;28;20064;-81
2024/01/28 09:20:46;;;;;;;18.33;7.90;;;;;;;0.71;100.00;102851.78;5067496;28;20040;-81
2024/01/28 09:23:12;;;;;;;17.38;7.72;;;;;;;0.77;100.00;102844.44;5067396;28;20388;-81
2024/01/28 09:25:37;;;;;;;14.85;7.15;;;;;;;0.86;100.00;102841.31;5067699;28;20064;-76
2024/01/28 09:28:03;;;;;;;16.88;6.95;;;;;;;0.99;100.00;102845.88;5068782;28;20146;-78
2024/01/28 09:30:28;;;;;;;19.63;7.80;;;;;;;1.02;100.00;102836.06;5067625;28;20034;-79
2024/01/28 09:32:54;;;;;;;12.45;7.13;;;;;;;1.13;100.00;102840.72;5067774;28;20118;-79
2024/01/28 09:35:20;;;;;;;16.77;7.15;;;;;;;1.17;100.00;102838.75;5068721;28;20106;-79
2024/01/28 09:37:46;;;;;;;13.85;6.65;;;;;;;1.25;100.00;102845.28;5066384;28;20110;-80
2024/01/28 09:40:13;;;;;;;16.30;6.97;;;;;;;1.35;100.00;102836.88;5067251;28;20484;-79
2024/01/28 09:42:57;;;;;;;13.32;6.70;;;;;;;1.47;100.00;102841.44;5066018;28;20056;-79
2024/01/28 09:45:24;;;;;;;19.38;8.15;;;;;;;1.55;100.00;102849.75;5066732;28;20053;-79
2024/01/28 09:47:50;;;;;;;18.10;8.55;;;;;;;1.66;100.00;102838.59;5065568;28;20384;-79
2024/01/28 09:50:16;;;;;;;21.38;7.78;;;;;;;1.74;100.00;102844.25;5067722;28;20029;-80
2024/01/28 09:52:42;;;;;;;15.10;7.82;;;;;;;1.81;100.00;102829.81;5066067;28;20035;-75
2024/01/28 09:55:07;;;;;;;18.83;7.85;;;;;;;1.96;100.00;102838.56;5068193;28;20039;-79
2024/01/28 09:57:33;;;;;;;16.23;7.15;;;;;;;1.95;100.00;102819.31;5068141;28;20036;-79
2024/01/28 09:59:58;;;;;;;12.45;6.30;;;;;;;2.15;100.00;102835.69;5067215;28;20090;-79
2024/01/28 10:02:25;;;;;;;12.35;6.93;;;;;;;2.17;100.00;102824.13;5068394;28;20447;-79
2024/01/28 10:04:50;;;;;;;14.07;7.13;;;;;;;2.35;100.00;102835.31;5067937;28;20028;-79
2024/01/28 10:07:16;;;;;;;17.48;7.82;;;;;;;2.44;100.00;102819.88;5068276;28;20134;-79
2024/01/28 10:09:41;;;;;;;15.77;7.28;;;;;;;2.65;100.00;102829.09;5066748;28;20024;-79
2024/01/28 10:12:09;;;;;;;18.25;7.85;;;;;;;2.75;100.00;102821.44;5067882;28;20037;-79
2024/01/28 10:14:34;;;;;;;12.65;5.78;;;;;;;2.92;100.00;102830.94;5068089;28;20028;-79
2024/01/28 10:16:59;;;;;;;14.80;6.50;;;;;;;2.99;100.00;102829.63;5066731;28;20434;-79
2024/01/28 10:19:25;;;;;;;18.83;7.88;;;;;;;3.07;100.00;102829.97;5067757;28;20054;-80
2024/01/28 10:21:51;;;;;;;15.20;6.07;;;;;;;3.14;100.00;102817.22;5067917;28;20054;-79
2024/01/28 10:24:17;;;;;;;13.00;5.82;;;;;;;3.21;100.00;102821.16;5067799;28;20850;-80
2024/01/28 10:26:42;;;;;;;22.05;7.40;;;;;;;3.22;100.00;102820.19;5068181;28;20033;-80
2024/01/28 10:29:09;;;;;;;12.02;6.03;;;;;;;3.17;100.00;102809.97;5066668;28;20395;-79
2024/01/28 10:31:35;;;;;;;13.98;6.20;;;;;;;3.26;100.00;102825.19;5066612;28;20418;-80
2024/01/28 10:34:01;;;;;;;15.02;5.90;;;;;;;3.26;100.00;102814.63;5067903;28;20028;-79
2024/01/28 10:36:27;;;;;;;15.00;5.75;;;;;;;3.36;100.00;102812.25;5066316;28;20037;-79
2024/01/28 10:39:00;;;;;;;11.52;5.35;;;;;;;3.43;100.00;102808.25;5068078;28;20063;-79
2024/01/28 10:41:25;;;;;;;15.50;5.85;;;;;;;3.54;100.00;102810.19;5068212;28;20028;-80
2024/01/28 10:43:57;;;;;;;14.27;6.78;;;;;;;3.64;100.00;102811.25;5071223;28;20365;-80
2024/01/28 10:46:34;;;;;;;9.52;4.78;;;;;;;3.66;100.00;102790.88;5071765;28;20044;-80
2024/01/28 10:49:04;;;;;;;16.80;5.63;;;;;;;3.78;100.00;102794.50;5071710;28;21294;-80
2024/01/28 10:51:32;;;;;;;12.85;6.68;;;;;;;3.87;100.00;102793.84;5071866;28;20082;-81
2024/01/28 10:53:58;;;;;;;14.73;5.70;;;;;;;3.97;100.00;102794.06;5071910;28;20028;-80
2024/01/28 10:56:24;;;;;;;19.58;6.18;;;;;;;4.09;100.00;102797.69;5071938;28;20071;-79
2024/01/28 10:58:50;;;;;;;15.77;5.65;;;;;;;4.17;100.00;102796.19;5070217;28;20459;-80
2024/01/28 11:01:16;;;;;;;12.85;6.60;;;;;;;4.28;100.00;102792.78;5071482;28;20028;-80
2024/01/28 11:03:42;;;;;;;12.40;5.45;;;;;;;4.35;100.00;102782.66;5071818;28;20059;-80
2024/01/28 11:06:08;;;;;;;11.90;5.55;;;;;;;4.40;100.00;102783.16;5071187;28;20024;-80